Time;durP1;ratioP1;P1;durP2;ratioP2;P2;SDS_P1;SDS_P2;PMS_P1;PMS_P2;Temp;Humidity;BMP_temperature;BMP_pressure;BME280_temperature;BME280_humidity;BME280_pressure;Samples;Min_cycle;Max_cycle;Signal;HPM_P1;HPM_P2
2023/05/03 00:01:09;;;;;;;3.95;2.00;;;;;;;7.02;100.00;102996.09;5006128;28;20042;-79
2023/05/03 00:03:37;;;;;;;3.95;1.80;;;;;;;7.03;100.00;102993.56;4987523;28;20427;-79
2023/05/03 00:06:11;;;;;;;3.55;1.77;;;;;;;7.07;100.00;103002.47;5007533;28;20049;-77
2023/05/03 00:08:39;;;;;;;7.53;2.65;;;;;;;7.09;100.00;102995.59;4989710;28;20069;-78
2023/05/03 00:11:09;;;;;;;5.15;2.05;;;;;;;7.11;100.00;102991.31;5010939;28;20034;-78
2023/05/03 00:13:36;;;;;;;3.15;2.10;;;;;;;7.13;100.00;102997.53;4976126;28;20064;-79
2023/05/03 00:16:05;;;;;;;2.95;1.80;;;;;;;7.14;100.00;103012.44;5008776;28;20054;-79
2023/05/03 00:18:33;;;;;;;4.35;2.08;;;;;;;7.15;100.00;103003.78;5004958;28;20490;-79
2023/05/03 00:21:00;;;;;;;2.53;1.65;;;;;;;7.15;100.00;103003.78;4995837;28;20043;-79
2023/05/03 00:23:27;;;;;;;4.05;2.03;;;;;;;7.16;100.00;103013.41;5003919;28;20050;-78
2023/05/03 00:25:57;;;;;;;3.90;1.55;;;;;;;7.17;100.00;103007.38;5011582;28;20045;-78
2023/05/03 00:28:25;;;;;;;3.30;1.83;;;;;;;7.18;100.00;103006.56;4989828;28;20041;-79
2023/05/03 00:30:53;;;;;;;5.63;1.80;;;;;;;7.16;100.00;103017.78;5011995;28;20045;-78
2023/05/03 00:33:23;;;;;;;5.72;1.92;;;;;;;7.15;100.00;103018.63;4990460;28;20049;-78
2023/05/03 00:35:50;;;;;;;3.17;1.50;;;;;;;7.14;100.00;103012.44;5027186;28;20499;-79
2023/05/03 00:38:18;;;;;;;5.95;1.80;;;;;;;7.14;100.00;103025.56;5019688;28;20041;-78
2023/05/03 00:40:52;;;;;;;2.42;1.33;;;;;;;7.13;100.00;103012.38;5043195;28;20461;-77
2023/05/03 00:43:20;;;;;;;3.53;1.75;;;;;;;7.11;100.00;103016.66;4991209;28;20054;-78
2023/05/03 00:45:48;;;;;;;3.53;1.63;;;;;;;7.12;100.00;103014.09;4980009;28;20041;-79
2023/05/03 00:48:19;;;;;;;3.75;1.80;;;;;;;7.10;100.00;103022.69;5009900;28;20057;-78
2023/05/03 00:50:48;;;;;;;6.28;1.52;;;;;;;7.10;100.00;103014.84;5008038;28;20053;-79
2023/05/03 00:53:17;;;;;;;3.78;2.00;;;;;;;7.09;100.00;103016.56;5020392;28;20053;-78
2023/05/03 00:55:45;;;;;;;3.47;1.70;;;;;;;7.10;100.00;103010.50;5001014;28;20450;-79
2023/05/03 00:58:13;;;;;;;5.40;1.60;;;;;;;7.11;100.00;103014.94;4998218;28;20061;-78
2023/05/03 01:00:41;;;;;;;2.92;1.90;;;;;;;7.13;100.00;103015.00;4985189;28;20045;-78
2023/05/03 01:03:09;;;;;;;3.70;1.70;;;;;;;7.14;100.00;103007.19;4993966;28;20046;-78
2023/05/03 01:05:53;;;;;;;4.50;1.65;;;;;;;7.14;100.00;102995.81;5007908;28;20494;-79
2023/05/03 01:08:34;;;;;;;4.15;1.75;;;;;;;7.14;100.00;102995.81;5009193;28;20056;-78
2023/05/03 01:11:17;;;;;;;7.40;1.70;;;;;;;7.14;100.00;102990.56;5032841;28;20052;-80
2023/05/03 01:14:07;;;;;;;3.60;1.70;;;;;;;7.13;100.00;102983.53;5008621;28;20049;-80
2023/05/03 01:16:48;;;;;;;5.50;2.00;;;;;;;7.14;100.00;102990.56;4953013;28;20054;-80
2023/05/03 01:19:29;;;;;;;3.70;1.90;;;;;;;7.14;100.00;102991.47;5001467;28;20061;-78
2023/05/03 01:22:30;;;;;;;2.13;1.55;;;;;;;7.14;100.00;102996.72;5011321;28;20048;-78
2023/05/03 01:25:18;;;;;;;3.40;1.70;;;;;;;7.11;100.00;103004.44;5011452;28;20053;-79
2023/05/03 01:27:45;;;;;;;3.55;1.70;;;;;;;7.09;100.00;103000.84;5004474;28;20277;-79
2023/05/03 01:30:13;;;;;;;3.55;1.80;;;;;;;7.09;100.00;102999.91;4972539;28;20478;-79
2023/05/03 01:33:08;;;;;;;3.97;1.60;;;;;;;7.08;100.00;103011.25;5008775;28;20037;-79
2023/05/03 01:35:55;;;;;;;3.35;2.10;;;;;;;7.08;100.00;103008.63;5005387;28;20054;-79
2023/05/03 01:38:23;;;;;;;4.05;1.90;;;;;;;7.08;100.00;103006.00;4997951;28;20053;-79
2023/05/03 01:40:53;;;;;;;4.65;1.75;;;;;;;7.07;100.00;103001.56;5011245;28;23465;-79
2023/05/03 01:43:22;;;;;;;1.80;1.70;;;;;;;7.05;100.00;103006.75;4984085;28;20050;-78
2023/05/03 01:45:49;;;;;;;3.35;1.88;;;;;;;7.04;100.00;103002.31;4971652;28;20068;-79
2023/05/03 01:48:18;;;;;;;4.60;1.83;;;;;;;7.04;100.00;103015.41;5008966;28;20053;-78
2023/05/03 01:50:46;;;;;;;2.33;1.50;;;;;;;7.02;100.00;103012.72;5009349;28;20042;-78
2023/05/03 01:53:13;;;;;;;2.35;1.70;;;;;;;7.02;100.00;103015.34;4994217;28;20049;-78
2023/05/03 01:55:42;;;;;;;2.13;1.60;;;;;;;7.05;100.00;103011.06;5009043;28;20046;-79
2023/05/03 01:58:11;;;;;;;2.85;1.58;;;;;;;7.07;100.00;103012.97;4967682;28;20050;-78
2023/05/03 02:00:43;;;;;;;5.43;2.42;;;;;;;7.09;100.00;103011.31;4968895;28;21913;-79
2023/05/03 02:03:11;;;;;;;2.38;1.33;;;;;;;7.11;100.00;103011.41;4998243;28;20037;-79
2023/05/03 02:05:40;;;;;;;4.00;1.55;;;;;;;7.12;100.00;103016.72;5011819;28;20049;-80
2023/05/03 02:08:08;;;;;;;4.00;2.00;;;;;;;7.14;100.00;103011.56;5009767;28;20049;-78
2023/05/03 02:10:35;;;;;;;2.90;1.52;;;;;;;7.13;100.00;103008.03;4986892;28;20046;-77
2023/05/03 02:13:03;;;;;;;2.80;1.92;;;;;;;7.14;100.00;103006.31;5005522;28;20057;-78
2023/05/03 02:15:30;;;;;;;4.43;1.77;;;;;;;7.14;100.00;103004.56;4965353;28;20069;-77
2023/05/03 02:18:01;;;;;;;2.85;1.65;;;;;;;7.15;100.00;103008.13;4973755;28;20051;-78
2023/05/03 02:20:34;;;;;;;4.25;1.67;;;;;;;7.15;100.00;103005.50;5004091;28;20061;-78
2023/05/03 02:23:01;;;;;;;3.58;1.73;;;;;;;7.16;100.00;103004.66;4973509;28;20166;-78
2023/05/03 02:25:29;;;;;;;2.85;1.55;;;;;;;7.17;100.00;103003.84;4979735;28;20050;-78
2023/05/03 02:27:56;;;;;;;3.17;1.60;;;;;;;7.16;100.00;103009.91;4980495;28;20050;-77
2023/05/03 02:30:24;;;;;;;3.65;1.70;;;;;;;7.16;100.00;103015.16;5007519;28;20069;-77
2023/05/03 02:32:51;;;;;;;1.70;1.40;;;;;;;7.16;100.00;103015.16;4983511;28;20403;-78
2023/05/03 02:35:20;;;;;;;4.53;1.83;;;;;;;7.16;100.00;103015.16;5025247;28;20387;-80
2023/05/03 02:37:47;;;;;;;2.40;1.27;;;;;;;7.13;100.00;103017.63;4956557;28;20741;-78
2023/05/03 02:40:15;;;;;;;4.82;1.55;;;;;;;7.10;100.00;103020.97;4999996;28;20054;-79
2023/05/03 02:42:45;;;;;;;1.77;1.10;;;;;;;7.10;100.00;103020.09;4991275;28;20034;-79
2023/05/03 02:45:17;;;;;;;1.02;0.90;;;;;;;7.09;100.00;103018.25;4968233;28;20093;-77
2023/05/03 02:47:44;;;;;;;1.42;1.00;;;;;;;7.08;100.00;103012.13;4983501;28;20057;-79
2023/05/03 02:50:13;;;;;;;1.40;1.20;;;;;;;7.09;100.00;103013.03;5008819;28;20058;-80
2023/05/03 02:52:41;;;;;;;3.47;1.20;;;;;;;7.11;100.00;103006.16;5007264;28;20050;-79
2023/05/03 02:55:09;;;;;;;5.60;1.20;;;;;;;7.09;100.00;103006.09;5009171;28;20046;-80
2023/05/03 02:57:39;;;;;;;1.73;1.20;;;;;;;7.10;100.00;103004.34;5006674;28;20142;-78
2023/05/03 03:00:10;;;;;;;2.30;1.17;;;;;;;7.09;100.00;102998.22;5005278;28;20046;-78
2023/05/03 03:02:39;;;;;;;1.52;0.80;;;;;;;7.10;100.00;102997.38;4966149;28;20053;-79
2023/05/03 03:05:09;;;;;;;2.65;1.02;;;;;;;7.13;100.00;102989.69;4985186;28;20049;-79
2023/05/03 03:07:40;;;;;;;2.30;1.15;;;;;;;7.14;100.00;102988.84;5017532;28;20054;-78
2023/05/03 03:10:08;;;;;;;4.90;1.35;;;;;;;7.17;100.00;102993.38;5010114;28;20056;-78
2023/05/03 03:12:36;;;;;;;2.10;1.40;;;;;;;7.17;100.00;102985.50;4970803;28;20058;-78
2023/05/03 03:15:10;;;;;;;1.27;1.10;;;;;;;7.17;100.00;102986.41;4987483;28;20050;-78
2023/05/03 03:17:38;;;;;;;3.53;1.15;;;;;;;7.18;100.00;102989.91;4961174;28;20058;-79
2023/05/03 03:20:12;;;;;;;2.92;1.15;;;;;;;7.18;100.00;102977.72;4951815;28;20073;-78
2023/05/03 03:22:44;;;;;;;2.40;1.10;;;;;;;7.16;100.00;102974.09;5020004;28;20443;-77
2023/05/03 03:25:12;;;;;;;1.20;1.00;;;;;;;7.17;100.00;102969.78;4980612;28;20070;-78
2023/05/03 03:27:39;;;;;;;5.05;1.27;;;;;;;7.17;100.00;102969.78;4984465;28;20042;-78
2023/05/03 03:30:08;;;;;;;2.25;1.25;;;;;;;7.17;100.00;102964.53;4987378;28;20057;-79
2023/05/03 03:32:44;;;;;;;3.13;1.08;;;;;;;7.16;100.00;102965.31;4965104;28;20046;-78
2023/05/03 03:35:17;;;;;;;3.05;1.27;;;;;;;7.15;100.00;102961.81;4930014;28;20055;-79
2023/05/03 03:37:44;;;;;;;2.50;1.30;;;;;;;7.16;100.00;102960.09;5011423;28;20047;-78
2023/05/03 03:40:12;;;;;;;2.15;1.45;;;;;;;7.15;100.00;102967.06;4967165;28;20046;-78
2023/05/03 03:42:43;;;;;;;2.22;1.33;;;;;;;7.14;100.00;102954.75;4988525;28;20046;-79
2023/05/03 03:45:11;;;;;;;5.47;1.50;;;;;;;7.16;100.00;102952.22;4990878;28;20051;-78
2023/05/03 03:47:39;;;;;;;2.33;1.35;;;;;;;7.16;100.00;102957.47;4995836;28;20054;-78
2023/05/03 03:50:09;;;;;;;3.63;1.50;;;;;;;7.17;100.00;102954.03;4935429;28;20065;-79
2023/05/03 03:52:41;;;;;;;1.83;1.30;;;;;;;7.17;100.00;102954.03;5004609;28;20058;-79
2023/05/03 03:55:10;;;;;;;1.42;1.10;;;;;;;7.18;100.00;102958.44;4973524;28;20051;-78
2023/05/03 03:57:38;;;;;;;4.97;1.30;;;;;;;7.19;100.00;102962.88;5002980;28;20066;-79
2023/05/03 04:00:09;;;;;;;4.30;1.20;;;;;;;7.19;100.00;102963.78;4990338;28;20053;-77
2023/05/03 04:02:41;;;;;;;4.28;1.50;;;;;;;7.19;100.00;102970.75;4966896;28;20050;-77
2023/05/03 04:05:14;;;;;;;1.55;1.20;;;;;;;7.21;100.00;102963.84;4909877;28;20050;-77
2023/05/03 04:07:44;;;;;;;2.63;1.50;;;;;;;7.21;100.00;102971.72;4979624;28;20042;-78
2023/05/03 04:10:12;;;;;;;1.92;1.05;;;;;;;7.22;100.00;102973.50;4966766;28;20055;-78
2023/05/03 04:12:43;;;;;;;6.28;1.55;;;;;;;7.22;100.00;102978.75;4959501;28;20424;-78
2023/05/03 04:15:13;;;;;;;1.02;0.90;;;;;;;7.21;100.00;102979.59;4971431;28;20054;-78
2023/05/03 04:17:43;;;;;;;1.57;1.00;;;;;;;7.22;100.00;102989.22;4996570;28;20393;-77
2023/05/03 04:20:12;;;;;;;4.05;1.13;;;;;;;7.26;100.00;102990.28;4918130;28;20061;-78
2023/05/03 04:22:44;;;;;;;5.78;1.50;;;;;;;7.26;100.00;102991.22;4994819;28;20058;-79
2023/05/03 04:25:13;;;;;;;2.60;1.10;;;;;;;7.29;100.00;102995.72;4996105;28;20063;-77
2023/05/03 04:27:44;;;;;;;2.70;1.00;;;;;;;7.30;100.00;103002.78;5003149;28;20055;-79
2023/05/03 04:30:14;;;;;;;2.97;1.10;;;;;;;7.32;100.00;103011.63;4987575;28;20069;-78
2023/05/03 04:32:46;;;;;;;2.78;1.30;;;;;;;7.33;100.00;103008.16;4988164;28;20046;-78
2023/05/03 04:35:14;;;;;;;1.98;1.10;;;;;;;7.33;100.00;103009.03;4951246;28;20046;-78
2023/05/03 04:37:46;;;;;;;1.13;1.10;;;;;;;7.34;100.00;103023.97;4987425;28;20058;-79
2023/05/03 04:40:18;;;;;;;3.45;1.15;;;;;;;7.36;100.00;103022.31;4993755;28;20058;-78
2023/05/03 04:42:51;;;;;;;0.95;0.80;;;;;;;7.38;100.00;103019.78;5003473;28;20054;-78
2023/05/03 04:45:19;;;;;;;5.32;1.45;;;;;;;7.39;100.00;103014.63;4984036;28;20065;-80
2023/05/03 04:47:50;;;;;;;3.17;1.40;;;;;;;7.39;100.00;103024.19;5019029;28;20050;-79
2023/05/03 04:50:18;;;;;;;13.02;1.90;;;;;;;7.40;100.00;103029.53;4968885;28;20305;-79
2023/05/03 04:52:49;;;;;;;1.27;1.10;;;;;;;7.40;100.00;103026.91;4933272;28;20058;-79
2023/05/03 04:55:18;;;;;;;5.25;1.15;;;;;;;7.40;100.00;103032.16;4959853;28;20057;-78
2023/05/03 04:57:46;;;;;;;5.03;1.38;;;;;;;7.40;100.00;103033.88;4956060;28;20061;-79
2023/05/03 05:00:14;;;;;;;2.28;1.20;;;;;;;7.40;100.00;103037.41;4966191;28;20051;-79
2023/05/03 05:02:47;;;;;;;1.83;1.17;;;;;;;7.40;100.00;103040.00;4986729;28;20054;-79
2023/05/03 05:05:15;;;;;;;5.47;1.40;;;;;;;7.42;100.00;103035.75;4952988;28;20058;-79
2023/05/03 05:07:48;;;;;;;1.92;1.10;;;;;;;7.45;100.00;103041.97;4997978;28;20053;-79
2023/05/03 05:10:19;;;;;;;3.28;1.52;;;;;;;7.46;100.00;103044.69;4929037;28;20060;-80
2023/05/03 05:12:50;;;;;;;3.72;1.55;;;;;;;7.48;100.00;103040.41;5002065;28;20053;-80
2023/05/03 05:15:19;;;;;;;1.65;1.40;;;;;;;7.49;100.00;103041.34;4981179;28;20053;-83
2023/05/03 05:17:47;;;;;;;1.83;1.40;;;;;;;7.51;100.00;103056.31;5007048;28;20129;-80
2023/05/03 05:20:17;;;;;;;4.43;1.73;;;;;;;7.52;100.00;103052.84;5001165;28;20402;-81
2023/05/03 05:22:48;;;;;;;5.78;1.70;;;;;;;7.53;100.00;103054.66;4967537;28;20604;-79
2023/05/03 05:25:15;;;;;;;3.97;1.85;;;;;;;7.55;100.00;103053.03;4960241;28;20059;-80
2023/05/03 05:27:43;;;;;;;2.28;1.58;;;;;;;7.57;100.00;103046.13;4988691;28;20066;-79
2023/05/03 05:30:11;;;;;;;4.45;1.70;;;;;;;7.58;100.00;103058.44;4974099;28;20050;-81
2023/05/03 05:32:40;;;;;;;4.70;1.75;;;;;;;7.60;100.00;103058.53;5010822;28;20065;-80
2023/05/03 05:35:11;;;;;;;1.90;1.80;;;;;;;7.63;100.00;103056.03;4994532;28;20046;-82
2023/05/03 05:37:41;;;;;;;1.30;1.00;;;;;;;7.64;100.00;103051.69;4995592;28;20053;-79
2023/05/03 05:40:10;;;;;;;;;;;;;;;7.63;100.00;103060.38;4975742;28;20061;-80
2023/05/03 05:42:45;;;;;;;1.60;1.25;;;;;;;7.63;100.00;103056.03;5005451;28;19922;-79
2023/05/03 05:45:13;;;;;;;4.07;1.20;;;;;;;7.65;100.00;103050.88;5022633;28;20061;-80
2023/05/03 05:47:42;;;;;;;3.45;1.23;;;;;;;7.65;100.00;103045.63;5003243;28;20050;-79
2023/05/03 05:50:10;;;;;;;4.15;1.52;;;;;;;7.65;100.00;103051.75;4979615;28;20060;-79
2023/05/03 05:52:45;;;;;;;3.70;1.48;;;;;;;7.68;100.00;103064.16;5008079;28;20054;-79
2023/05/03 05:55:14;;;;;;;3.33;1.40;;;;;;;7.70;100.00;103062.50;4982182;28;20062;-80
2023/05/03 05:57:44;;;;;;;8.20;1.73;;;;;;;7.74;100.00;103064.44;4996206;28;20469;-80
2023/05/03 06:00:14;;;;;;;2.83;1.20;;;;;;;7.76;100.00;103065.44;5002384;28;20066;-78
2023/05/03 06:02:44;;;;;;;3.10;1.13;;;;;;;7.80;100.00;103055.16;4975356;28;20955;-79
2023/05/03 06:05:16;;;;;;;1.85;1.08;;;;;;;7.83;100.00;103057.03;4971461;28;20054;-79
2023/05/03 06:07:43;;;;;;;3.83;1.02;;;;;;;7.86;100.00;103069.41;4993587;28;20435;-79
2023/05/03 06:10:10;;;;;;;1.42;1.02;;;;;;;7.88;100.00;103073.00;4954743;28;20487;-79
2023/05/03 06:12:43;;;;;;;2.10;1.00;;;;;;;7.91;100.00;103066.19;5014291;28;20499;-79
2023/05/03 06:15:15;;;;;;;4.00;1.33;;;;;;;7.95;100.00;103064.63;4989881;28;20058;-79
2023/05/03 06:17:44;;;;;;;2.42;1.05;;;;;;;7.97;100.00;103061.22;4990074;28;20054;-79
2023/05/03 06:20:11;;;;;;;4.00;1.10;;;;;;;8.01;100.00;103070.16;4994863;28;20053;-79
2023/05/03 06:22:41;;;;;;;3.70;1.40;;;;;;;8.04;100.00;103066.81;4987411;28;20046;-79
2023/05/03 06:25:13;;;;;;;3.83;1.58;;;;;;;8.09;100.00;103075.78;4961144;28;20054;-78
2023/05/03 06:27:46;;;;;;;6.03;1.27;;;;;;;8.16;100.00;103078.78;4969523;28;20496;-78
2023/05/03 06:30:14;;;;;;;1.58;1.00;;;;;;;8.20;100.00;103080.78;5011996;28;20045;-79
2023/05/03 06:32:42;;;;;;;2.20;1.20;;;;;;;8.25;100.00;103075.72;4971023;28;20503;-79
2023/05/03 06:35:11;;;;;;;3.53;1.13;;;;;;;8.29;100.00;103079.41;5017964;28;20053;-79
2023/05/03 06:37:42;;;;;;;3.55;1.50;;;;;;;8.32;100.00;103075.19;5008781;28;20049;-78
2023/05/03 06:40:10;;;;;;;3.47;1.65;;;;;;;8.33;100.00;103076.09;4992067;28;20042;-79
2023/05/03 06:42:37;;;;;;;2.88;1.40;;;;;;;8.31;100.00;103072.50;4988574;28;20046;-79
2023/05/03 06:45:13;;;;;;;3.85;1.30;;;;;;;8.29;100.00;103071.53;4999585;28;20058;-79
2023/05/03 06:47:41;;;;;;;2.30;1.30;;;;;;;8.28;100.00;103069.69;5005586;28;20054;-78
2023/05/03 06:50:09;;;;;;;2.75;1.30;;;;;;;8.30;100.00;103075.94;5007685;28;20053;-79
2023/05/03 06:52:37;;;;;;;2.20;1.05;;;;;;;8.32;100.00;103074.31;4994640;28;20058;-79
2023/05/03 06:55:06;;;;;;;5.25;1.40;;;;;;;8.36;100.00;103066.63;4977483;28;20049;-79
2023/05/03 06:57:33;;;;;;;2.92;1.10;;;;;;;8.40;100.00;103072.94;4989681;28;20414;-79
2023/05/03 07:00:00;;;;;;;2.53;1.40;;;;;;;8.42;100.00;103067.78;4977214;28;20042;-79
2023/05/03 07:02:28;;;;;;;2.25;1.25;;;;;;;8.42;100.00;103070.41;5005300;28;20069;-79
2023/05/03 07:04:55;;;;;;;3.70;1.30;;;;;;;8.40;100.00;103068.56;4991822;28;20050;-79
2023/05/03 07:07:23;;;;;;;3.25;1.20;;;;;;;8.44;100.00;103067.03;4993200;28;20123;-79
2023/05/03 07:09:50;;;;;;;3.63;1.60;;;;;;;8.48;100.00;103073.34;4976181;28;20072;-78
2023/05/03 07:12:18;;;;;;;3.20;1.30;;;;;;;8.52;100.00;103068.28;4992673;28;20065;-78
2023/05/03 07:14:46;;;;;;;3.40;0.90;;;;;;;8.58;100.00;103071.22;4904568;28;20042;-80
2023/05/03 07:17:13;;;;;;;3.17;1.10;;;;;;;8.64;100.00;103075.88;4964754;28;20054;-79
2023/05/03 07:19:41;;;;;;;1.83;0.70;;;;;;;8.70;100.00;103070.88;4965288;28;20054;-79
2023/05/03 07:22:09;;;;;;;3.35;1.15;;;;;;;8.75;100.00;103074.63;4973485;28;20107;-80
2023/05/03 07:24:36;;;;;;;4.05;1.30;;;;;;;8.80;100.00;103073.94;4959500;28;20054;-79
2023/05/03 07:27:04;;;;;;;4.65;1.15;;;;;;;8.84;100.00;103078.50;4970770;28;20054;-81
2023/05/03 07:29:31;;;;;;;3.70;1.25;;;;;;;8.86;100.00;103083.00;4941676;28;20050;-79
2023/05/03 07:31:59;;;;;;;3.08;1.40;;;;;;;8.86;100.00;103083.00;4970604;28;20055;-80
2023/05/03 07:34:26;;;;;;;2.13;1.02;;;;;;;8.90;100.00;103078.78;4986013;28;20046;-80
2023/05/03 07:36:54;;;;;;;4.90;1.10;;;;;;;8.94;100.00;103070.19;4969016;28;20051;-80
2023/05/03 07:39:22;;;;;;;1.10;0.80;;;;;;;8.95;100.00;103072.91;4986199;28;20063;-80
2023/05/03 07:41:50;;;;;;;1.52;1.20;;;;;;;8.95;100.00;103062.38;4986799;28;20051;-81
2023/05/03 07:44:17;;;;;;;2.15;1.00;;;;;;;8.98;100.00;103067.78;4963789;28;20051;-78
2023/05/03 07:46:44;;;;;;;2.22;0.70;;;;;;;9.01;100.00;103072.28;4926428;28;20045;-78
2023/05/03 07:49:12;;;;;;;1.63;0.90;;;;;;;9.06;100.00;103075.13;4970291;28;20058;-78
2023/05/03 07:51:40;;;;;;;4.13;1.45;;;;;;;9.07;100.00;103071.66;4987569;28;20058;-78
2023/05/03 07:54:08;;;;;;;4.47;1.05;;;;;;;9.09;100.00;103078.81;4966684;28;20039;-80
2023/05/03 07:56:35;;;;;;;3.10;1.10;;;;;;;9.08;100.00;103070.84;4986475;28;20069;-80
2023/05/03 07:59:02;;;;;;;1.05;0.80;;;;;;;9.09;100.00;103081.44;4980757;28;20061;-80
2023/05/03 08:01:37;;;;;;;4.30;1.10;;;;;;;9.07;100.00;103077.81;4940172;28;20050;-79
2023/05/03 08:04:06;;;;;;;2.95;0.90;;;;;;;9.07;100.00;103082.19;4963471;28;20527;-80
2023/05/03 08:06:34;;;;;;;2.92;1.40;;;;;;;9.14;100.00;103081.63;4956465;28;20046;-79
2023/05/03 08:09:03;;;;;;;3.08;0.80;;;;;;;9.13;100.00;103077.19;4988604;28;20050;-79
2023/05/03 08:11:31;;;;;;;7.25;1.10;;;;;;;9.08;99.01;103076.09;4979556;28;20054;-79
2023/05/03 08:13:58;;;;;;;4.40;0.93;;;;;;;9.12;98.95;103085.91;5009288;28;20293;-79
2023/05/03 08:16:26;;;;;;;4.72;0.90;;;;;;;9.17;99.38;103073.88;4976275;28;20617;-79
2023/05/03 08:18:53;;;;;;;2.08;1.38;;;;;;;9.22;99.37;103074.06;4995959;28;20068;-79
2023/05/03 08:21:23;;;;;;;3.05;1.00;;;;;;;9.29;99.57;103071.78;4998791;28;20065;-79
2023/05/03 08:23:50;;;;;;;4.57;1.17;;;;;;;9.36;98.75;103078.22;4992195;28;20050;-81
2023/05/03 08:26:18;;;;;;;2.85;1.10;;;;;;;9.38;97.87;103079.19;4997604;28;20044;-79
2023/05/03 08:28:45;;;;;;;3.30;0.90;;;;;;;9.43;97.55;103079.38;4980339;28;20049;-79
2023/05/03 08:31:13;;;;;;;2.78;1.00;;;;;;;9.49;97.70;103082.25;4957397;28;20049;-78
2023/05/03 08:33:42;;;;;;;1.15;0.95;;;;;;;9.53;97.34;103079.84;5016008;28;20518;-79
2023/05/03 08:36:10;;;;;;;6.65;1.20;;;;;;;9.47;94.48;103079.59;5013825;28;20053;-86
2023/05/03 08:38:40;;;;;;;3.60;0.82;;;;;;;9.52;95.60;103079.78;5023321;28;20045;-83
2023/05/03 08:41:26;;;;;;;2.30;1.17;;;;;;;9.61;95.73;103077.53;5017458;28;20041;-84
2023/05/03 08:43:59;;;;;;;2.40;1.02;;;;;;;9.62;94.08;103084.63;5003573;28;20052;-82
2023/05/03 08:46:27;;;;;;;1.25;0.95;;;;;;;9.55;93.00;103083.44;5033548;28;20033;-80
2023/05/03 08:48:56;;;;;;;1.55;1.10;;;;;;;9.55;93.34;103078.19;4941954;28;20044;-80
2023/05/03 08:51:27;;;;;;;3.00;1.10;;;;;;;9.51;91.68;103065.72;4982893;28;20053;-79
2023/05/03 08:53:54;;;;;;;3.00;1.00;;;;;;;9.45;91.55;103086.53;4989985;28;20434;-80
2023/05/03 08:56:28;;;;;;;1.65;1.15;;;;;;;9.52;92.92;103087.69;5031065;28;20041;-80
2023/05/03 08:58:56;;;;;;;3.22;1.20;;;;;;;9.60;92.49;103091.53;5037420;28;20053;-83
2023/05/03 09:01:23;;;;;;;3.13;1.25;;;;;;;9.68;92.85;103079.63;4995762;28;20512;-82
2023/05/03 09:03:51;;;;;;;1.60;1.20;;;;;;;9.76;92.30;103077.31;4952863;28;20049;-81
2023/05/03 09:06:26;;;;;;;1.25;1.10;;;;;;;9.86;91.83;103081.22;4988736;28;20045;-79
2023/05/03 09:08:54;;;;;;;1.27;1.17;;;;;;;9.91;89.24;103080.56;5012468;28;20066;-81
2023/05/03 09:11:32;;;;;;;2.80;1.50;;;;;;;9.99;89.35;103072.97;5007818;28;20048;-81
2023/05/03 09:14:13;;;;;;;2.08;1.30;;;;;;;10.03;87.83;103071.38;5009026;28;20057;-81
2023/05/03 09:16:45;;;;;;;2.08;1.15;;;;;;;10.09;88.48;103076.88;5008516;28;20434;-79
2023/05/03 09:19:15;;;;;;;0.95;0.90;;;;;;;10.20;88.76;103074.69;4976514;28;20045;-79
2023/05/03 09:21:48;;;;;;;4.20;1.42;;;;;;;10.31;88.57;103074.31;4985262;28;20054;-78
2023/05/03 09:24:20;;;;;;;1.73;0.98;;;;;;;10.33;85.66;103079.66;5010803;28;20049;-79
2023/05/03 09:26:50;;;;;;;1.65;1.10;;;;;;;10.15;84.64;103069.22;4988594;28;20784;-79
2023/05/03 09:29:31;;;;;;;1.85;1.40;;;;;;;10.07;84.00;103087.34;4997664;28;20491;-78
2023/05/03 09:32:01;;;;;;;4.50;1.05;;;;;;;10.03;86.58;103074.91;5015683;28;20068;-81
2023/05/03 09:34:29;;;;;;;1.40;1.25;;;;;;;10.09;87.04;103084.78;4983888;28;20057;-79
2023/05/03 09:36:56;;;;;;;2.03;1.10;;;;;;;10.17;88.10;103085.09;4977049;28;20053;-79
2023/05/03 09:39:24;;;;;;;3.20;1.00;;;;;;;10.24;86.74;103089.78;4999057;28;20052;-79
2023/05/03 09:41:51;;;;;;;3.47;0.93;;;;;;;10.21;86.59;103080.03;4998180;28;20054;-81
2023/05/03 09:44:19;;;;;;;3.47;1.00;;;;;;;10.28;86.67;103081.16;5019747;28;20526;-79
2023/05/03 09:47:05;;;;;;;1.38;0.90;;;;;;;10.37;86.51;103081.56;5006899;28;20058;-79
2023/05/03 09:49:36;;;;;;;4.37;1.10;;;;;;;10.48;87.40;103079.38;4995279;28;20053;-81
2023/05/03 09:52:06;;;;;;;3.78;0.98;;;;;;;10.51;85.08;103077.75;4999123;28;20053;-81
2023/05/03 09:54:34;;;;;;;5.38;1.00;;;;;;;10.52;86.39;103079.53;4986237;28;20069;-78
2023/05/03 09:57:04;;;;;;;2.95;1.25;;;;;;;10.54;85.99;103075.22;5014659;28;20052;-80
2023/05/03 09:59:35;;;;;;;4.85;0.90;;;;;;;10.56;86.04;103080.56;4961442;28;20061;-80
2023/05/03 10:02:06;;;;;;;3.17;1.20;;;;;;;10.54;85.28;103069.94;4998679;28;20049;-80
2023/05/03 10:04:50;;;;;;;2.47;1.00;;;;;;;10.61;85.36;103080.75;5020463;28;20056;-80
2023/05/03 10:07:21;;;;;;;2.45;1.20;;;;;;;10.58;85.87;103070.06;4979059;28;20060;-79
2023/05/03 10:09:48;;;;;;;2.15;0.98;;;;;;;10.62;85.53;103074.63;5004353;28;20045;-80
2023/05/03 10:12:17;;;;;;;3.40;0.95;;;;;;;10.67;85.96;103079.22;4965752;28;20062;-79
2023/05/03 10:14:47;;;;;;;7.88;1.10;;;;;;;10.75;86.38;103078.63;4990268;28;20123;-81
2023/05/03 10:17:25;;;;;;;6.03;1.83;;;;;;;10.78;85.42;103082.28;4984424;28;20464;-80
2023/05/03 10:20:38;;;;;;;1.38;0.90;;;;;;;10.76;84.27;103069.91;4982036;28;20046;-79
2023/05/03 10:23:13;;;;;;;0.70;0.70;;;;;;;10.70;85.09;103078.47;4964757;28;20053;-80
2023/05/03 10:26:12;;;;;;;3.25;0.90;;;;;;;10.72;84.21;103077.69;4974258;28;20054;-83
2023/05/03 10:28:40;;;;;;;1.10;0.90;;;;;;;10.65;84.80;103080.91;4982466;28;20045;-82
2023/05/03 10:31:57;;;;;;;7.68;1.15;;;;;;;10.67;86.03;103084.50;4972730;28;20058;-83
2023/05/03 10:34:33;;;;;;;6.18;1.35;;;;;;;10.67;85.47;103079.22;4953478;28;20097;-82
2023/05/03 10:37:07;;;;;;;6.53;1.60;;;;;;;10.60;85.58;103087.75;4959253;28;20061;-79
2023/05/03 10:39:34;;;;;;;3.58;1.33;;;;;;;10.46;86.88;103086.31;4982966;28;20078;-81
2023/05/03 10:42:07;;;;;;;3.60;1.20;;;;;;;10.30;85.89;103085.72;4981578;28;20371;-81
2023/05/03 10:44:54;;;;;;;2.63;1.23;;;;;;;10.20;86.83;103083.50;4967133;28;20061;-82
2023/05/03 10:47:23;;;;;;;3.53;1.00;;;;;;;10.19;88.46;103088.69;4985002;28;20042;-80
2023/05/03 10:50:17;;;;;;;2.83;1.08;;;;;;;10.17;89.20;103086.03;4988924;28;20051;-81
2023/05/03 10:52:47;;;;;;;2.25;1.13;;;;;;;10.17;89.88;103080.75;4949566;28;20065;-82
2023/05/03 10:55:18;;;;;;;2.53;1.30;;;;;;;10.18;90.05;103090.44;4981930;28;20054;-79
2023/05/03 10:57:46;;;;;;;3.97;1.38;;;;;;;10.19;90.58;103089.63;4993009;28;20054;-82
2023/05/03 11:00:28;;;;;;;3.58;1.10;;;;;;;10.19;91.57;103093.97;4990566;28;20054;-81
2023/05/03 11:03:18;;;;;;;3.75;1.10;;;;;;;10.17;91.70;103100.91;4976061;28;20046;-79
2023/05/03 11:05:47;;;;;;;3.63;1.30;;;;;;;10.14;91.43;103086.78;4993895;28;20050;-79
2023/05/03 11:08:20;;;;;;;3.15;0.98;;;;;;;10.18;91.81;103084.28;4943432;28;20493;-79
2023/05/03 11:11:09;;;;;;;3.40;1.05;;;;;;;10.20;91.96;103080.88;4992170;28;20054;-78
2023/05/03 11:13:37;;;;;;;2.05;1.00;;;;;;;10.22;91.43;103075.66;5010632;28;20054;-79
2023/05/03 11:16:08;;;;;;;2.95;1.13;;;;;;;10.26;91.22;103074.94;5009167;28;20045;-78
2023/05/03 11:18:36;;;;;;;2.65;1.20;;;;;;;10.29;91.00;103081.22;4994986;28;20054;-79
2023/05/03 11:21:03;;;;;;;1.17;0.93;;;;;;;10.33;90.13;103070.00;4994545;28;20053;-78
2023/05/03 11:23:31;;;;;;;4.00;1.02;;;;;;;10.37;91.14;103067.50;4947241;28;20058;-80
2023/05/03 11:25:58;;;;;;;2.85;1.10;;;;;;;10.47;91.03;103072.28;4996064;28;20046;-79
2023/05/03 11:28:25;;;;;;;4.30;1.15;;;;;;;10.55;90.81;103068.22;4989864;28;20175;-78
2023/05/03 11:30:53;;;;;;;1.30;1.10;;;;;;;10.59;90.15;103066.63;5031070;28;20058;-79
2023/05/03 11:33:21;;;;;;;3.65;1.30;;;;;;;10.65;90.86;103072.13;4999418;28;20152;-79
2023/05/03 11:35:48;;;;;;;9.20;1.50;;;;;;;10.73;89.72;103074.19;4980179;28;20046;-79
2023/05/03 11:38:15;;;;;;;2.78;0.98;;;;;;;10.70;89.65;103062.66;4953570;28;20081;-78
2023/05/03 11:40:43;;;;;;;4.05;1.48;;;;;;;10.78;89.66;103063.81;4984113;28;20507;-80
2023/05/03 11:43:10;;;;;;;1.10;0.95;;;;;;;10.86;89.11;103065.00;4979712;28;20046;-79